Time;durP1;ratioP1;P1;durP2;ratioP2;P2;SDS_P1;SDS_P2;PMS_P1;PMS_P2;Temp;Humidity;BMP_temperature;BMP_pressure;BME280_temperature;BME280_humidity;BME280_pressure;Samples;Min_cycle;Max_cycle;Signal;HPM_P1;HPM_P2
2022/11/01 00:00:54;;;;;;;22.35;9.10;;;;;;;;;;5015153;28;20560;-80
2022/11/01 00:03:22;;;;;;;22.73;9.13;;;;;;;;;;5013309;28;20062;-81
2022/11/01 00:05:48;;;;;;;21.63;8.80;;;;;;;;;;5014027;28;20132;-79
2022/11/01 00:08:14;;;;;;;18.98;9.00;;;;;;;;;;5012225;28;20184;-81
2022/11/01 00:10:41;;;;;;;20.40;9.20;;;;;;;;;;5013070;28;20467;-78
2022/11/01 00:13:07;;;;;;;19.17;9.23;;;;;;;;;;5011954;28;20058;-80
2022/11/01 00:15:34;;;;;;;24.48;9.88;;;;;;;;;;4998105;28;20050;-80
2022/11/01 00:18:00;;;;;;;17.58;9.23;;;;;;;;;;4993434;28;20517;-80
2022/11/01 00:20:26;;;;;;;22.20;9.13;;;;;;;;;;4977156;28;20046;-80
2022/11/01 00:22:53;;;;;;;19.23;9.50;;;;;;;;;;4991339;28;20053;-80
2022/11/01 00:25:19;;;;;;;21.10;9.50;;;;;;;;;;4994815;28;20050;-78
2022/11/01 00:27:45;;;;;;;20.63;9.90;;;;;;;;;;5010177;28;20106;-79
2022/11/01 00:30:12;;;;;;;23.98;10.40;;;;;;;;;;5008413;28;20474;-78
2022/11/01 00:32:38;;;;;;;18.92;9.52;;;;;;;;;;4996437;28;20058;-81
2022/11/01 00:35:05;;;;;;;23.80;10.23;;;;;;;;;;4994976;28;20129;-80
2022/11/01 00:37:31;;;;;;;22.35;9.35;;;;;;;;;;4995054;28;20058;-79
2022/11/01 00:39:57;;;;;;;21.52;8.82;;;;;;;;;;4993957;28;20061;-81
2022/11/01 00:42:24;;;;;;;22.10;9.48;;;;;;;;;;4995905;28;20050;-78
2022/11/01 00:44:50;;;;;;;19.42;8.90;;;;;;;;;;5033610;28;20077;-80
2022/11/01 00:47:16;;;;;;;22.52;9.55;;;;;;;;;;5034510;28;20050;-79
2022/11/01 00:49:43;;;;;;;18.85;8.75;;;;;;;;;;5033748;28;20049;-79
2022/11/01 00:52:09;;;;;;;19.80;9.98;;;;;;;;;;5032850;28;20046;-79
2022/11/01 00:54:36;;;;;;;21.80;9.40;;;;;;;;;;5030848;28;20047;-79
2022/11/01 00:57:02;;;;;;;20.67;9.25;;;;;;;;;;5033551;28;20046;-80
2022/11/01 00:59:28;;;;;;;25.25;9.40;;;;;;;;;;5034368;28;20045;-78
2022/11/01 01:01:55;;;;;;;22.13;9.75;;;;;;;;;;5029995;28;20129;-78
2022/11/01 01:04:21;;;;;;;24.20;10.07;;;;;;;;;;5015584;28;20056;-79
2022/11/01 01:06:48;;;;;;;20.52;9.35;;;;;;;;;;5014482;28;20133;-79
2022/11/01 01:09:14;;;;;;;20.38;9.38;;;;;;;;;;5013527;28;20129;-78
2022/11/01 01:11:41;;;;;;;23.30;9.05;;;;;;;;;;5013825;28;20225;-79
2022/11/01 01:14:08;;;;;;;25.40;10.02;;;;;;;;;;5014047;28;20057;-79
2022/11/01 01:16:34;;;;;;;20.67;9.15;;;;;;;;;;5013762;28;20050;-78
2022/11/01 01:19:01;;;;;;;19.27;9.45;;;;;;;;;;5014785;28;20057;-79
2022/11/01 01:21:27;;;;;;;23.50;9.70;;;;;;;;;;5013568;28;20073;-77
2022/11/01 01:23:53;;;;;;;21.75;9.40;;;;;;;;;;4994412;28;20108;-79
2022/11/01 01:26:20;;;;;;;19.45;8.98;;;;;;;;;;5017983;28;20122;-76
2022/11/01 01:28:46;;;;;;;26.05;9.52;;;;;;;;;;5024769;28;20113;-79
2022/11/01 01:31:13;;;;;;;18.83;9.32;;;;;;;;;;5015878;28;20054;-81
2022/11/01 01:33:39;;;;;;;21.55;9.02;;;;;;;;;;5012442;28;20144;-79
2022/11/01 01:36:06;;;;;;;24.85;9.68;;;;;;;;;;5014077;28;20049;-80
2022/11/01 01:38:32;;;;;;;24.15;9.48;;;;;;;;;;5014765;28;20068;-81
2022/11/01 01:41:54;;;;;;;18.88;9.15;;;;;;;;;;5013090;28;20050;-80
2022/11/01 01:43:45;;;;;;;22.88;8.60;;;;;;;;;;5012619;28;20498;-80
2022/11/01 01:46:12;;;;;;;18.88;8.38;;;;;;;;;;4995921;28;20072;-80
2022/11/01 01:48:40;;;;;;;20.77;9.40;;;;;;;;;;4995234;28;20058;-80
2022/11/01 01:51:17;;;;;;;25.58;9.40;;;;;;;;;;5013153;28;20052;-80
2022/11/01 01:53:45;;;;;;;17.98;7.80;;;;;;;;;;5011109;28;20066;-81
2022/11/01 01:56:17;;;;;;;20.83;7.32;;;;;;;;;;4994003;28;20046;-79
2022/11/01 01:58:57;;;;;;;18.92;8.07;;;;;;;;;;5012429;28;20049;-78
2022/11/01 02:01:25;;;;;;;16.45;8.10;;;;;;;;;;5012291;28;20050;-80
2022/11/01 02:03:51;;;;;;;17.23;7.75;;;;;;;;;;5010685;28;20053;-80
2022/11/01 02:06:20;;;;;;;18.08;7.63;;;;;;;;;;5015068;28;20473;-79
2022/11/01 02:08:48;;;;;;;16.05;7.63;;;;;;;;;;5017118;28;20053;-79
2022/11/01 02:11:15;;;;;;;19.00;7.20;;;;;;;;;;5016732;28;20054;-79
2022/11/01 02:13:42;;;;;;;19.67;7.55;;;;;;;;;;5015553;28;20084;-79
2022/11/01 02:16:23;;;;;;;19.38;7.82;;;;;;;;;;5016732;28;20054;-79
2022/11/01 02:19:01;;;;;;;17.70;7.68;;;;;;;;;;4998135;28;20064;-79
2022/11/01 02:21:47;;;;;;;19.13;7.90;;;;;;;;;;5015901;28;20042;-80
2022/11/01 02:24:28;;;;;;;17.40;7.50;;;;;;;;;;5014917;28;20046;-77
2022/11/01 02:26:55;;;;;;;18.05;8.13;;;;;;;;;;5016359;28;20053;-80
2022/11/01 02:29:40;;;;;;;16.15;7.25;;;;;;;;;;5017480;28;20054;-80
2022/11/01 02:32:21;;;;;;;19.27;7.47;;;;;;;;;;5017066;28;20054;-80
2022/11/01 02:35:06;;;;;;;20.70;8.38;;;;;;;;;;5024396;28;20042;-80
2022/11/01 02:37:38;;;;;;;14.97;7.07;;;;;;;;;;5023470;28;20425;-79
2022/11/01 02:40:07;;;;;;;15.32;7.03;;;;;;;;;;5020206;28;20051;-80
2022/11/01 02:42:40;;;;;;;18.23;8.05;;;;;;;;;;5037821;28;20247;-79
2022/11/01 02:45:09;;;;;;;16.70;7.75;;;;;;;;;;5036906;28;20136;-80
2022/11/01 02:47:36;;;;;;;20.17;7.82;;;;;;;;;;5035495;28;20465;-79
2022/11/01 02:50:05;;;;;;;16.27;6.85;;;;;;;;;;5038396;28;20330;-79
2022/11/01 02:52:32;;;;;;;18.20;7.22;;;;;;;;;;5039630;28;20072;-79
2022/11/01 02:55:00;;;;;;;15.18;7.22;;;;;;;;;;5035981;28;20140;-80
2022/11/01 02:57:26;;;;;;;16.15;7.60;;;;;;;;;;5035922;28;20053;-79
2022/11/01 02:59:52;;;;;;;15.10;6.45;;;;;;;;;;5022774;28;20084;-79
2022/11/01 03:02:40;;;;;;;23.35;8.25;;;;;;;;;;5041475;28;20042;-78
2022/11/01 03:05:13;;;;;;;21.08;7.50;;;;;;;;;;5044409;28;20309;-79
2022/11/01 03:07:41;;;;;;;15.48;6.93;;;;;;;;;;5024237;28;20117;-79
2022/11/01 03:10:08;;;;;;;18.15;7.13;;;;;;;;;;5018542;28;20490;-79
2022/11/01 03:12:38;;;;;;;16.50;7.43;;;;;;;;;;5017980;28;20050;-79
2022/11/01 03:15:04;;;;;;;15.90;6.85;;;;;;;;;;5004561;28;20049;-78
2022/11/01 03:17:40;;;;;;;16.48;6.95;;;;;;;;;;5004615;28;20052;-78
2022/11/01 03:20:06;;;;;;;21.80;6.82;;;;;;;;;;5020747;28;20064;-79
2022/11/01 03:22:54;;;;;;;17.23;7.10;;;;;;;;;;5003007;28;20494;-79
2022/11/01 03:25:38;;;;;;;15.70;6.78;;;;;;;;;;4992363;28;20045;-79
2022/11/01 03:28:05;;;;;;;18.60;7.05;;;;;;;;;;5020206;28;20113;-80
2022/11/01 03:30:32;;;;;;;17.10;6.55;;;;;;;;;;5019229;28;20054;-80
2022/11/01 03:32:59;;;;;;;14.80;7.10;;;;;;;;;;5014938;28;20129;-81
2022/11/01 03:35:40;;;;;;;16.55;7.30;;;;;;;;;;5014689;28;20045;-80
2022/11/01 03:38:09;;;;;;;19.63;7.75;;;;;;;;;;5014096;28;20498;-79
2022/11/01 03:40:38;;;;;;;17.88;7.15;;;;;;;;;;5012882;28;20049;-80
2022/11/01 03:43:05;;;;;;;18.98;6.60;;;;;;;;;;5017492;28;20045;-79
2022/11/01 03:45:34;;;;;;;21.00;7.55;;;;;;;;;;5016934;28;20050;-77
2022/11/01 03:48:00;;;;;;;12.75;6.90;;;;;;;;;;4997589;28;20053;-78
2022/11/01 03:50:27;;;;;;;17.02;7.72;;;;;;;;;;5022247;28;20246;-77
2022/11/01 03:52:54;;;;;;;16.00;6.45;;;;;;;;;;5022965;28;20049;-79
2022/11/01 03:55:21;;;;;;;24.02;8.00;;;;;;;;;;4997161;28;20050;-80
2022/11/01 03:57:47;;;;;;;16.73;7.32;;;;;;;;;;5015354;28;20054;-80
2022/11/01 04:00:15;;;;;;;17.42;7.35;;;;;;;;;;5017364;28;20046;-79
2022/11/01 04:02:42;;;;;;;16.48;7.78;;;;;;;;;;5013690;28;20473;-78
2022/11/01 04:05:09;;;;;;;13.85;7.10;;;;;;;;;;5014101;28;20050;-80
2022/11/01 04:07:36;;;;;;;15.27;7.32;;;;;;;;;;5013744;28;20156;-79
2022/11/01 04:10:02;;;;;;;18.02;7.20;;;;;;;;;;5016244;28;20109;-80
2022/11/01 04:12:29;;;;;;;14.65;6.80;;;;;;;;;;5029905;28;20052;-78
2022/11/01 04:20:34;;;;;;;19.92;7.20;;;;;;;;;;5012904;28;20046;-79
2022/11/01 04:23:01;;;;;;;21.42;6.88;;;;;;;;;;5014213;28;20050;-79
2022/11/01 04:25:28;;;;;;;19.75;7.03;;;;;;;;;;5015584;28;20049;-78
2022/11/01 04:27:57;;;;;;;15.32;6.95;;;;;;;;;;5013775;28;20052;-79
2022/11/01 04:30:24;;;;;;;13.52;6.65;;;;;;;;;;5012424;28;20045;-77
2022/11/01 04:32:51;;;;;;;24.10;6.78;;;;;;;;;;5010512;28;20057;-78
2022/11/01 04:35:18;;;;;;;15.70;6.38;;;;;;;;;;5013644;28;20107;-77
2022/11/01 04:37:44;;;;;;;12.63;6.35;;;;;;;;;;5012748;28;20048;-79
2022/11/01 04:40:14;;;;;;;22.77;8.23;;;;;;;;;;5013305;28;20134;-79
2022/11/01 04:42:41;;;;;;;22.65;8.07;;;;;;;;;;5013780;28;20041;-79
2022/11/01 04:45:07;;;;;;;19.83;8.15;;;;;;;;;;5013836;28;20050;-78
2022/11/01 04:47:34;;;;;;;25.60;8.23;;;;;;;;;;5014047;28;20390;-78
2022/11/01 04:50:00;;;;;;;22.95;8.50;;;;;;;;;;5015619;28;20057;-79
2022/11/01 04:52:27;;;;;;;22.23;8.52;;;;;;;;;;5014898;28;20053;-77
2022/11/01 04:54:53;;;;;;;20.13;8.77;;;;;;;;;;4994097;28;20531;-80
2022/11/01 04:57:23;;;;;;;27.05;8.48;;;;;;;;;;5013830;28;20049;-79
2022/11/01 04:59:50;;;;;;;23.52;8.48;;;;;;;;;;5012543;28;20056;-79
2022/11/01 05:02:17;;;;;;;20.60;8.60;;;;;;;;;;4992492;28;20046;-78
2022/11/01 05:04:43;;;;;;;27.00;9.82;;;;;;;;;;5011768;28;20046;-78
2022/11/01 05:07:09;;;;;;;19.98;8.27;;;;;;;;;;5011571;28;20049;-79
2022/11/01 05:09:36;;;;;;;18.85;8.45;;;;;;;;;;5011549;28;20056;-77
2022/11/01 05:12:02;;;;;;;19.63;8.85;;;;;;;;;;5011859;28;20133;-79
2022/11/01 05:14:29;;;;;;;18.10;7.88;;;;;;;;;;5010225;28;20050;-77
2022/11/01 05:16:58;;;;;;;25.90;8.57;;;;;;;;;;5008986;28;20159;-79
2022/11/01 05:19:24;;;;;;;25.88;9.15;;;;;;;;;;5007650;28;20050;-75
2022/11/01 05:21:51;;;;;;;20.42;7.43;;;;;;;;;;5005495;28;20061;-75
2022/11/01 05:24:17;;;;;;;19.05;8.07;;;;;;;;;;5005491;28;20052;-78
2022/11/01 05:26:44;;;;;;;29.75;8.60;;;;;;;;;;5007426;28;20054;-78
2022/11/01 05:29:10;;;;;;;17.75;8.00;;;;;;;;;;5010414;28;20564;-80
2022/11/01 05:31:56;;;;;;;17.27;8.45;;;;;;;;;;5011000;28;20049;-78
2022/11/01 05:34:23;;;;;;;19.75;8.52;;;;;;;;;;5010362;28;20046;-79
2022/11/01 05:36:49;;;;;;;20.65;8.52;;;;;;;;;;5011829;28;20080;-80
2022/11/01 05:39:16;;;;;;;17.10;6.97;;;;;;;;;;5011458;28;20049;-80
2022/11/01 05:41:42;;;;;;;26.38;7.88;;;;;;;;;;5016261;28;20050;-81
2022/11/01 05:44:08;;;;;;;24.05;7.68;;;;;;;;;;5014035;28;20498;-80
2022/11/01 05:46:37;;;;;;;23.38;7.22;;;;;;;;;;5014413;28;20081;-80
2022/11/01 05:49:03;;;;;;;20.05;7.80;;;;;;;;;;5015171;28;20450;-80
2022/11/01 05:51:30;;;;;;;25.88;7.57;;;;;;;;;;5017776;28;20125;-80
2022/11/01 05:53:56;;;;;;;16.73;7.00;;;;;;;;;;5012501;28;20045;-80
2022/11/01 05:56:23;;;;;;;19.00;7.28;;;;;;;;;;5013945;28;20777;-79
2022/11/01 05:58:49;;;;;;;16.17;6.97;;;;;;;;;;5015724;28;20049;-79
2022/11/01 06:01:16;;;;;;;21.42;7.18;;;;;;;;;;5015859;28;20089;-80
2022/11/01 06:03:47;;;;;;;17.75;6.88;;;;;;;;;;5013612;28;20057;-81
2022/11/01 06:06:14;;;;;;;17.05;7.68;;;;;;;;;;5014381;28;20508;-81
2022/11/01 06:08:40;;;;;;;14.10;6.72;;;;;;;;;;5013562;28;20049;-82
2022/11/01 06:11:06;;;;;;;20.98;6.72;;;;;;;;;;5014996;28;20557;-81
2022/11/01 06:13:33;;;;;;;19.33;6.90;;;;;;;;;;5013565;28;20453;-81
2022/11/01 06:16:00;;;;;;;24.00;7.45;;;;;;;;;;5019389;28;20052;-80
2022/11/01 06:18:27;;;;;;;16.63;6.90;;;;;;;;;;5000166;28;20356;-81
2022/11/01 06:20:53;;;;;;;24.65;7.38;;;;;;;;;;4996763;28;20050;-79
2022/11/01 06:23:20;;;;;;;23.15;6.82;;;;;;;;;;5008824;28;20050;-80
2022/11/01 06:25:46;;;;;;;16.35;6.63;;;;;;;;;;5015014;28;20056;-80
2022/11/01 06:28:12;;;;;;;18.25;7.38;;;;;;;;;;5012674;28;20049;-80
2022/11/01 06:30:39;;;;;;;24.77;6.80;;;;;;;;;;5012536;28;20113;-79
2022/11/01 06:33:08;;;;;;;25.92;5.93;;;;;;;;;;5009443;28;20053;-80
2022/11/01 06:35:34;;;;;;;20.30;6.20;;;;;;;;;;4995336;28;20110;-80
2022/11/01 06:38:05;;;;;;;14.95;5.15;;;;;;;;;;5014168;28;20061;-81
2022/11/01 06:40:33;;;;;;;18.45;5.40;;;;;;;;;;5015950;28;20137;-80
2022/11/01 06:43:00;;;;;;;11.77;4.40;;;;;;;;;;5012545;28;20041;-78
2022/11/01 06:45:27;;;;;;;11.55;4.40;;;;;;;;;;5013410;28;20050;-79
2022/11/01 06:47:54;;;;;;;20.80;4.50;;;;;;;;;;4995860;28;20433;-79
2022/11/01 06:50:20;;;;;;;15.10;4.30;;;;;;;;;;5013581;28;20490;-80
2022/11/01 06:52:47;;;;;;;10.57;4.05;;;;;;;;;;5011449;28;20607;-79
2022/11/01 06:55:14;;;;;;;17.55;4.68;;;;;;;;;;5014549;28;20052;-79
2022/11/01 06:57:40;;;;;;;15.70;3.60;;;;;;;;;;5015669;28;20437;-81
2022/11/01 07:00:08;;;;;;;12.52;3.75;;;;;;;;;;5014829;28;20056;-80
2022/11/01 07:02:34;;;;;;;11.88;3.83;;;;;;;;;;5014179;28;20050;-81
2022/11/01 07:05:01;;;;;;;13.18;4.20;;;;;;;;;;5015596;28;20068;-81
2022/11/01 07:07:27;;;;;;;15.38;4.43;;;;;;;;;;5015473;28;20113;-78
2022/11/01 07:09:53;;;;;;;11.77;3.80;;;;;;;;;;5015962;28;20053;-78
2022/11/01 07:12:20;;;;;;;13.30;3.60;;;;;;;;;;5020937;28;20064;-78
2022/11/01 07:14:46;;;;;;;14.98;3.92;;;;;;;;;;5022719;28;20121;-81
2022/11/01 07:17:12;;;;;;;14.07;3.78;;;;;;;;;;5016504;28;20061;-79
2022/11/01 07:19:39;;;;;;;13.82;4.05;;;;;;;;;;5014253;28;20057;-79
2022/11/01 07:22:05;;;;;;;10.30;4.32;;;;;;;;;;5013254;28;20060;-78
2022/11/01 07:24:31;;;;;;;12.40;4.07;;;;;;;;;;5011459;28;20604;-80
2022/11/01 07:26:58;;;;;;;16.77;4.53;;;;;;;;;;4996700;28;20075;-80
2022/11/01 07:29:24;;;;;;;16.00;4.10;;;;;;;;;;4997751;28;20064;-79
2022/11/01 07:31:51;;;;;;;13.32;4.30;;;;;;;;;;5013173;28;20060;-78
2022/11/01 07:34:17;;;;;;;15.65;4.47;;;;;;;;;;5012532;28;20050;-78
2022/11/01 07:36:43;;;;;;;16.95;4.43;;;;;;;;;;4995736;28;20057;-77
2022/11/01 07:39:09;;;;;;;11.45;4.22;;;;;;;;;;4996329;28;20052;-77
2022/11/01 07:41:36;;;;;;;12.77;4.40;;;;;;;;;;5012249;28;20065;-79
2022/11/01 07:44:02;;;;;;;19.38;4.13;;;;;;;;;;4995392;28;20050;-79
2022/11/01 07:46:30;;;;;;;14.20;4.35;;;;;;;;;;4995181;28;20053;-79
2022/11/01 07:48:59;;;;;;;20.25;4.55;;;;;;;;;;5014038;28;20062;-79
2022/11/01 07:51:25;;;;;;;14.95;4.47;;;;;;;;;;5014113;28;20050;-78
2022/11/01 07:53:51;;;;;;;17.25;5.18;;;;;;;;;;5014109;28;20057;-79
2022/11/01 07:56:20;;;;;;;19.95;5.22;;;;;;;;;;5014609;28;20050;-78
2022/11/01 07:58:46;;;;;;;21.02;4.22;;;;;;;;;;4998296;28;20045;-80
2022/11/01 08:01:13;;;;;;;12.57;4.43;;;;;;;;;;5014776;28;20050;-80
2022/11/01 08:03:40;;;;;;;15.02;5.10;;;;;;;;;;5014214;28;20042;-79
2022/11/01 08:06:06;;;;;;;15.43;5.00;;;;;;;;;;5015103;28;20528;-81
2022/11/01 08:08:33;;;;;;;16.00;5.10;;;;;;;;;;5014651;28;20058;-80
2022/11/01 08:11:00;;;;;;;18.65;4.97;;;;;;;;;;5014347;28;20049;-81
2022/11/01 08:13:27;;;;;;;16.83;5.22;;;;;;;;;;5014423;28;20631;-81
2022/11/01 08:15:53;;;;;;;15.65;4.80;;;;;;;;;;4996742;28;20046;-79
2022/11/01 08:18:21;;;;;;;16.02;4.80;;;;;;;;;;5014406;28;20052;-81
2022/11/01 08:20:48;;;;;;;16.50;4.88;;;;;;;;;;5014154;28;20271;-81
2022/11/01 08:23:14;;;;;;;13.85;5.38;;;;;;;;;;5009802;28;20046;-81
2022/11/01 08:25:41;;;;;;;16.50;4.95;;;;;;;;;;5013660;28;20054;-81
2022/11/01 08:28:10;;;;;;;16.17;5.03;;;;;;;;;;5028191;28;20060;-80
2022/11/01 08:30:37;;;;;;;14.25;4.63;;;;;;;;;;5014426;28;20182;-79
2022/11/01 08:33:03;;;;;;;19.77;4.75;;;;;;;;;;5011444;28;20052;-79
2022/11/01 08:35:31;;;;;;;14.05;5.43;;;;;;;;;;5013440;28;20053;-80
2022/11/01 08:37:58;;;;;;;17.88;4.53;;;;;;;;;;5011714;28;20046;-78
2022/11/01 08:40:24;;;;;;;15.68;4.53;;;;;;;;;;5011200;28;20050;-79
2022/11/01 08:42:51;;;;;;;19.27;4.80;;;;;;;;;;5012168;28;20079;-79
2022/11/01 08:45:17;;;;;;;17.27;4.55;;;;;;;;;;5014014;28;20374;-80
2022/11/01 08:47:44;;;;;;;12.90;4.45;;;;;;;;;;5014702;28;20124;-79
2022/11/01 08:50:11;;;;;;;11.88;4.53;;;;;;;;;;5016377;28;20293;-79
2022/11/01 08:52:38;;;;;;;17.40;4.35;;;;;;;;;;4994870;28;20069;-79
2022/11/01 08:55:06;;;;;;;16.02;3.95;;;;;;;;;;5016243;28;20050;-79
2022/11/01 08:57:32;;;;;;;11.07;4.20;;;;;;;;;;5016503;28;20054;-79
2022/11/01 08:59:59;;;;;;;16.60;4.47;;;;;;;;;;5020406;28;20073;-79
2022/11/01 09:02:25;;;;;;;10.38;3.80;;;;;;;;;;5020506;28;20062;-80
2022/11/01 09:04:52;;;;;;;11.05;4.18;;;;;;;;;;5021648;28;20136;-78
2022/11/01 09:07:19;;;;;;;16.80;4.18;;;;;;;;;;5017193;28;20056;-79
2022/11/01 09:09:45;;;;;;;11.25;4.20;;;;;;;;;;4995800;28;20054;-80
2022/11/01 09:12:11;;;;;;;14.85;4.43;;;;;;;;;;5013331;28;20069;-80
2022/11/01 09:14:40;;;;;;;12.23;4.32;;;;;;;;;;5015180;28;20073;-79
2022/11/01 09:17:06;;;;;;;10.60;3.97;;;;;;;;;;5017573;28;20046;-80
2022/11/01 09:19:33;;;;;;;13.85;4.10;;;;;;;;;;5017023;28;20058;-80
2022/11/01 09:21:59;;;;;;;14.15;4.50;;;;;;;;;;5016210;28;20422;-79
2022/11/01 09:24:26;;;;;;;15.75;4.78;;;;;;;;;;5013635;28;20050;-79
2022/11/01 09:26:52;;;;;;;15.48;4.45;;;;;;;;;;5016821;28;20521;-81
2022/11/01 09:29:20;;;;;;;11.82;3.85;;;;;;;;;;5017982;28;20076;-80
2022/11/01 09:31:49;;;;;;;13.07;3.80;;;;;;;;;;5016963;28;20046;-78
2022/11/01 09:34:16;;;;;;;11.35;4.10;;;;;;;;;;5016301;28;20046;-79
2022/11/01 09:36:42;;;;;;;12.13;4.22;;;;;;;;;;5017538;28;20136;-78
2022/11/01 09:39:09;;;;;;;12.82;3.88;;;;;;;;;;5016499;28;20129;-78
2022/11/01 09:41:44;;;;;;;13.10;3.97;;;;;;;;;;5015893;28;20042;-81
2022/11/01 09:44:13;;;;;;;12.30;3.80;;;;;;;;;;5016326;28;20052;-81
2022/11/01 09:46:43;;;;;;;13.75;3.92;;;;;;;;;;5016242;28;20054;-80
2022/11/01 09:49:11;;;;;;;12.98;4.03;;;;;;;;;;5015764;28;20495;-80
2022/11/01 09:51:38;;;;;;;13.57;3.92;;;;;;;;;;5015836;28;20058;-80
2022/11/01 09:54:07;;;;;;;15.73;4.15;;;;;;;;;;5018255;28;20085;-79
2022/11/01 09:56:39;;;;;;;9.65;3.72;;;;;;;;;;5016339;28;20058;-80
2022/11/01 09:59:28;;;;;;;12.38;3.83;;;;;;;;;;5017394;28;20228;-80
2022/11/01 10:02:14;;;;;;;9.30;3.45;;;;;;;;;;5017350;28;20042;-80
2022/11/01 10:04:52;;;;;;;8.82;3.90;;;;;;;;;;5016809;28;20049;-80
2022/11/01 10:07:38;;;;;;;9.98;4.10;;;;;;;;;;5017046;28;20289;-79
2022/11/01 10:10:11;;;;;;;16.52;4.05;;;;;;;;;;4998658;28;20064;-80
2022/11/01 10:12:44;;;;;;;19.05;4.00;;;;;;;;;;5014906;28;20141;-80
2022/11/01 10:15:10;;;;;;;10.52;3.92;;;;;;;;;;5022766;28;20590;-80
2022/11/01 10:17:50;;;;;;;16.52;4.45;;;;;;;;;;5016304;28;20073;-80
2022/11/01 10:20:20;;;;;;;8.52;3.97;;;;;;;;;;5016266;28;20379;-79
2022/11/01 10:22:48;;;;;;;12.32;4.38;;;;;;;;;;5011947;28;20247;-80
2022/11/01 10:25:25;;;;;;;10.00;3.95;;;;;;;;;;5016474;28;20050;-80
2022/11/01 10:27:55;;;;;;;14.00;4.32;;;;;;;;;;5015563;28;20050;-80
2022/11/01 10:30:21;;;;;;;11.80;3.47;;;;;;;;;;4999368;28;20064;-80
2022/11/01 10:33:00;;;;;;;12.07;3.95;;;;;;;;;;5015361;28;20485;-79
2022/11/01 10:35:29;;;;;;;12.32;3.88;;;;;;;;;;5025075;28;20177;-78
2022/11/01 10:38:07;;;;;;;15.52;3.65;;;;;;;;;;5030850;28;20056;-79
2022/11/01 10:40:55;;;;;;;10.70;3.72;;;;;;;;;;5009651;28;20050;-78
2022/11/01 10:43:22;;;;;;;13.02;3.88;;;;;;;;;;4998567;28;20049;-79
2022/11/01 10:45:50;;;;;;;10.35;3.50;;;;;;;;;;5018533;28;20080;-78
2022/11/01 10:48:33;;;;;;;11.65;3.42;;;;;;;;;;5017059;28;20129;-80
2022/11/01 10:51:02;;;;;;;9.77;3.38;;;;;;;;;;5016138;28;20109;-77
2022/11/01 10:53:31;;;;;;;7.95;2.78;;;;;;;;;;4997085;28;20042;-80
2022/11/01 10:56:00;;;;;;;11.75;3.00;;;;;;;;;;5016455;28;20056;-80
2022/11/01 10:58:41;;;;;;;8.48;3.00;;;;;;;;;;4999735;28;20042;-80
2022/11/01 11:01:10;;;;;;;12.13;3.53;;;;;;;;;;5016748;28;20085;-78
2022/11/01 11:03:38;;;;;;;10.25;3.25;;;;;;;;;;5013431;28;20067;-79
2022/11/01 11:06:07;;;;;;;8.27;3.10;;;;;;;;;;5013727;28;20054;-77
2022/11/01 11:08:37;;;;;;;8.25;2.88;;;;;;;;;;5013454;28;20093;-78
2022/11/01 11:11:06;;;;;;;10.80;3.72;;;;;;;;;;5013157;28;20046;-78
2022/11/01 11:13:33;;;;;;;8.70;3.05;;;;;;;;;;5012587;28;20057;-78
2022/11/01 11:16:03;;;;;;;9.73;2.95;;;;;;;;;;5013476;28;20515;-79
2022/11/01 11:18:35;;;;;;;10.45;3.35;;;;;;;;;;5014551;28;20414;-80
2022/11/01 11:21:04;;;;;;;10.70;3.45;;;;;;;;;;5015368;28;20510;-78
2022/11/01 11:23:35;;;;;;;8.60;3.25;;;;;;;;;;5009984;28;20052;-78
2022/11/01 11:26:03;;;;;;;9.13;3.40;;;;;;;;;;4996411;28;20281;-79
2022/11/01 11:28:33;;;;;;;8.27;3.42;;;;;;;;;;5018943;28;20060;-79
2022/11/01 11:31:15;;;;;;;9.50;3.00;;;;;;;;;;5017042;28;20046;-79
2022/11/01 11:33:47;;;;;;;13.15;3.40;;;;;;;;;;4998368;28;20505;-79
2022/11/01 11:36:13;;;;;;;12.65;3.90;;;;;;;;;;5014774;28;20049;-80
2022/11/01 11:38:41;;;;;;;7.30;3.55;;;;;;;;;;5014104;28;20050;-80
2022/11/01 11:41:09;;;;;;;8.50;3.20;;;;;;;;;;5013587;28;20136;-79
2022/11/01 11:43:39;;;;;;;11.32;3.22;;;;;;;;;;5013549;28;20080;-78
2022/11/01 11:46:09;;;;;;;9.98;3.40;;;;;;;;;;4996856;28;20046;-79
2022/11/01 11:48:45;;;;;;;12.27;3.50;;;;;;;;;;4997333;28;20046;-78
2022/11/01 11:51:12;;;;;;;11.13;3.08;;;;;;;;;;5013304;28;20054;-81
2022/11/01 11:53:39;;;;;;;9.27;3.10;;;;;;;;;;5012861;28;20056;-80
2022/11/01 11:56:07;;;;;;;6.85;2.88;;;;;;;;;;5013642;28;20042;-79
2022/11/01 11:58:39;;;;;;;11.50;3.20;;;;;;;;;;5014557;28;20049;-80
2022/11/01 12:01:06;;;;;;;13.18;3.10;;;;;;;;;;5014471;28;20052;-80
2022/11/01 12:03:42;;;;;;;10.93;3.13;;;;;;;;;;5013196;28;20093;-80
2022/11/01 12:06:08;;;;;;;10.40;2.78;;;;;;;;;;5013299;28;20103;-79
2022/11/01 12:08:35;;;;;;;5.00;2.60;;;;;;;;;;5012299;28;20117;-79
2022/11/01 12:11:02;;;;;;;8.18;2.83;;;;;;;;;;5013681;28;20054;-79
2022/11/01 12:13:40;;;;;;;7.00;2.80;;;;;;;;;;5013311;28;20053;-79
2022/11/01 12:16:14;;;;;;;8.32;2.90;;;;;;;;;;4993355;28;20046;-78
2022/11/01 12:19:00;;;;;;;8.43;2.97;;;;;;;;;;4993285;28;20053;-79
2022/11/01 12:21:32;;;;;;;6.75;2.72;;;;;;;;;;4992427;28;20046;-79
2022/11/01 12:24:01;;;;;;;7.88;2.90;;;;;;;;;;4992737;28;20052;-80
2022/11/01 12:26:29;;;;;;;7.53;3.03;;;;;;;;;;4993798;28;20142;-80
2022/11/01 12:28:59;;;;;;;9.50;2.85;;;;;;;;;;4999970;28;20058;-79
2022/11/01 12:31:25;;;;;;;5.80;2.75;;;;;;;;;;4998536;28;20054;-80
2022/11/01 12:33:59;;;;;;;6.68;2.80;;;;;;;;;;4999365;28;20557;-79
2022/11/01 12:36:32;;;;;;;7.35;2.70;;;;;;;;;;5003886;28;20085;-78
2022/11/01 12:39:11;;;;;;;10.10;3.00;;;;;;;;;;4986565;28;20125;-79
2022/11/01 12:41:42;;;;;;;7.68;2.90;;;;;;;;;;5003399;28;20056;-79
2022/11/01 12:44:12;;;;;;;7.82;2.65;;;;;;;;;;5001270;28;20050;-79
2022/11/01 12:46:54;;;;;;;4.30;2.63;;;;;;;;;;5004119;28;20063;-79
2022/11/01 12:49:29;;;;;;;11.32;2.60;;;;;;;;;;4985521;28;20281;-79
2022/11/01 12:52:00;;;;;;;6.72;2.50;;;;;;;;;;4999162;28;20569;-79
2022/11/01 12:54:31;;;;;;;4.22;2.22;;;;;;;;;;4997331;28;20643;-80
2022/11/01 12:56:58;;;;;;;7.93;2.63;;;;;;;;;;4999767;28;20052;-79
2022/11/01 12:59:26;;;;;;;5.20;2.25;;;;;;;;;;5000731;28;20043;-78
2022/11/01 13:01:58;;;;;;;6.68;2.55;;;;;;;;;;4998196;28;20582;-79
2022/11/01 13:04:30;;;;;;;11.82;2.95;;;;;;;;;;4999626;28;20491;-79
2022/11/01 13:07:16;;;;;;;9.25;2.72;;;;;;;;;;5000647;28;20050;-78
2022/11/01 13:09:43;;;;;;;;;;;;;;;;;;4999254;28;20054;-78
2022/11/01 13:12:09;;;;;;;;;;;;;;;;;;5000292;28;20005;-79
2022/11/01 13:14:52;;;;;;;5.55;2.70;;;;;;;;;;5005691;28;20175;-79
2022/11/01 13:17:22;;;;;;;8.60;2.55;;;;;;;;;;5020125;28;20484;-81
2022/11/01 13:19:56;;;;;;;6.93;2.58;;;;;;;;;;5019599;28;20190;-80
2022/11/01 13:22:31;;;;;;;8.15;2.60;;;;;;;;;;5018974;28;20050;-81
2022/11/01 13:25:21;;;;;;;8.73;2.90;;;;;;;;;;5019217;28;20065;-78
2022/11/01 13:27:55;;;;;;;9.15;2.70;;;;;;;;;;5017422;28;20316;-82
2022/11/01 13:30:21;;;;;;;9.27;3.08;;;;;;;;;;5016510;28;20054;-80
2022/11/01 13:33:00;;;;;;;13.40;4.30;;;;;;;;;;5015306;28;20060;-81
2022/11/01 13:35:28;;;;;;;11.25;3.67;;;;;;;;;;5015994;28;20053;-80
2022/11/01 13:38:16;;;;;;;10.52;3.30;;;;;;;;;;5001169;28;20045;-82
2022/11/01 13:40:48;;;;;;;9.75;3.20;;;;;;;;;;5014566;28;20078;-81
2022/11/01 13:43:19;;;;;;;9.40;3.13;;;;;;;;;;5014140;28;20056;-79
2022/11/01 13:45:58;;;;;;;9.52;3.00;;;;;;;;;;4997997;28;20053;-79
2022/11/01 13:48:42;;;;;;;8.52;2.75;;;;;;;;;;5015631;28;20140;-79
2022/11/01 13:51:15;;;;;;;7.47;3.08;;;;;;;;;;5015171;28;20061;-78
2022/11/01 13:53:57;;;;;;;8.10;2.70;;;;;;;;;;5013490;28;20054;-78
2022/11/01 13:56:32;;;;;;;8.30;2.80;;;;;;;;;;5013530;28;20503;-81
2022/11/01 13:58:59;;;;;;;9.25;2.80;;;;;;;;;;5018832;28;20042;-78
2022/11/01 14:01:28;;;;;;;6.70;2.50;;;;;;;;;;5024466;28;20073;-80
2022/11/01 14:04:11;;;;;;;8.80;3.05;;;;;;;;;;5025654;28;20046;-80
2022/11/01 14:06:39;;;;;;;6.78;2.50;;;;;;;;;;5013204;28;20042;-81
2022/11/01 14:09:24;;;;;;;5.97;2.70;;;;;;;;;;5015171;28;20050;-80
2022/11/01 14:11:57;;;;;;;7.47;2.85;;;;;;;;;;5017302;28;20085;-80
2022/11/01 14:14:29;;;;;;;6.88;2.40;;;;;;;;;;5017153;28;20161;-80
2022/11/01 14:17:17;;;;;;;8.67;3.07;;;;;;;;;;5017990;28;20080;-82
2022/11/01 14:20:07;;;;;;;8.25;2.65;;;;;;;;;;5020257;28;20283;-81
2022/11/01 14:22:34;;;;;;;9.00;3.08;;;;;;;;;;5017888;28;20050;-80
2022/11/01 14:25:01;;;;;;;7.70;2.40;;;;;;;;;;5029919;28;20423;-80
2022/11/01 14:27:28;;;;;;;7.85;2.55;;;;;;;;;;5032230;28;20045;-79
2022/11/01 14:29:55;;;;;;;10.18;2.80;;;;;;;;;;5031708;28;20053;-79
2022/11/01 14:32:23;;;;;;;10.52;2.97;;;;;;;;;;5030073;28;20062;-78
2022/11/01 14:35:12;;;;;;;7.95;2.40;;;;;;;;;;5031992;28;20109;-80
2022/11/01 14:37:45;;;;;;;7.13;2.60;;;;;;;;;;5012041;28;20101;-80
2022/11/01 14:40:24;;;;;;;8.15;2.65;;;;;;;;;;5013445;28;20037;-78
2022/11/01 14:42:52;;;;;;;7.78;2.90;;;;;;;;;;5011864;28;20053;-79
2022/11/01 14:45:18;;;;;;;6.57;2.30;;;;;;;;;;4996829;28;20045;-80
2022/11/01 14:47:46;;;;;;;10.13;2.63;;;;;;;;;;5013352;28;20529;-80
2022/11/01 14:50:21;;;;;;;7.05;2.55;;;;;;;;;;4978972;28;20053;-80
2022/11/01 14:52:55;;;;;;;6.65;2.63;;;;;;;;;;5014402;28;20148;-79